TimeADT,TemperatureF,Dew PointF,Humidity,Sea Level PressureIn,VisibilityMPH,Wind Direction,Wind SpeedMPH,Gust SpeedMPH,PrecipitationIn,Events,Conditions,WindDirDegrees,DateUTC
12:00 AM,70.9,63.0,76,-9999,-9999.0,North,-9999.0,-,N/A,,Unknown,0,2013-09-23 03:00:00
1:00 AM,69.4,62.6,79,-9999,-9999.0,North,-9999.0,-,N/A,,Unknown,0,2013-09-23 04:00:00
2:00 AM,70.2,63.1,78,-9999,-9999.0,North,-9999.0,-,N/A,,Unknown,0,2013-09-23 05:00:00
3:00 AM,70,64,74,,,Calm,Calm,,,,,,2013-09-23 06:00:00
3:00 AM,70.0,63.5,80,-9999,-9999.0,North,-9999.0,-,N/A,,Unknown,0,2013-09-23 06:00:00
4:00 AM,70.3,63.9,80,-9999,-9999.0,North,-9999.0,-,N/A,,Unknown,0,2013-09-23 07:00:00
5:00 AM,70.5,63.9,79,-9999,-9999.0,North,-9999.0,-,N/A,,Unknown,0,2013-09-23 08:00:00
6:00 AM,69.6,64.2,83,-9999,-9999.0,North,-9999.0,-,N/A,,Unknown,0,2013-09-23 09:00:00
7:00 AM,68.2,65.5,91,-9999,-9999.0,North,-9999.0,-,0.10,,Unknown,0,2013-09-23 10:00:00
8:00 AM,68.7,64.9,88,-9999,-9999.0,North,-9999.0,-,0.13,,Unknown,0,2013-09-23 11:00:00
9:00 AM,67,64,86,,,Calm,Calm,,,,,,2013-09-23 12:00:00
9:00 AM,67.3,63.9,89,-9999,-9999.0,North,-9999.0,-,0.04,,Unknown,0,2013-09-23 12:00:00
10:00 AM,68.5,64.2,86,-9999,-9999.0,North,-9999.0,-,N/A,,Unknown,0,2013-09-23 13:00:00
11:00 AM,70.7,64.6,81,-9999,-9999.0,North,-9999.0,-,0.04,,Unknown,0,2013-09-23 14:00:00
12:00 PM,71.4,64.6,79,-9999,-9999.0,North,-9999.0,-,N/A,,Unknown,0,2013-09-23 15:00:00
1:00 PM,71.6,64.9,79,-9999,-9999.0,North,-9999.0,-,N/A,,Unknown,0,2013-09-23 16:00:00
2:00 PM,63.1,60.8,92,-9999,-9999.0,North,-9999.0,-,N/A,,Unknown,0,2013-09-23 17:00:00
3:00 PM,61,59,91,,,Calm,Calm,,,,,,2013-09-23 18:00:00
3:00 PM,61.3,59.0,92,-9999,-9999.0,North,-9999.0,-,0.08,,Unknown,0,2013-09-23 18:00:00
4:00 PM,60.4,57.9,91,-9999,-9999.0,North,-9999.0,-,0.04,,Unknown,0,2013-09-23 19:00:00
5:00 PM,60.1,57.9,93,-9999,-9999.0,North,-9999.0,-,0.04,,Unknown,0,2013-09-23 20:00:00
6:00 PM,60.1,58.1,93,-9999,-9999.0,North,-9999.0,-,N/A,,Unknown,0,2013-09-23 21:00:00
7:00 PM,56.5,55.0,95,-9999,-9999.0,North,-9999.0,-,0.12,,Unknown,0,2013-09-23 22:00:00
8:00 PM,56.1,54.1,93,-9999,-9999.0,North,-9999.0,-,N/A,,Unknown,0,2013-09-23 23:00:00
9:00 PM,55,53,92,,,Calm,Calm,,,,,,2013-09-24 00:00:00
9:00 PM,55.2,53.4,94,-9999,-9999.0,North,-9999.0,-,N/A,,Unknown,0,2013-09-24 00:00:00
10:00 PM,54.7,52.7,93,-9999,-9999.0,North,-9999.0,-,N/A,,Unknown,0,2013-09-24 01:00:00
11:00 PM,54.3,52.7,94,-9999,-9999.0,North,-9999.0,-,N/A,,Unknown,0,2013-09-24 02:00:00